Time;durP1;ratioP1;P1;durP2;ratioP2;P2;SDS_P1;SDS_P2;PMS_P1;PMS_P2;Temp;Humidity;BMP_temperature;BMP_pressure;BME280_temperature;BME280_humidity;BME280_pressure;Samples;Min_cycle;Max_cycle;Signal;HPM_P1;HPM_P2
2023/07/06 00:00:59;;;;;;;7.28;4.82;;;12.20;99.90;;;;;;5037002;28;20029;-81
2023/07/06 00:03:25;;;;;;;6.68;4.78;;;12.20;99.90;;;;;;5033132;28;20060;-80
2023/07/06 00:05:51;;;;;;;9.98;4.97;;;12.30;99.90;;;;;;5034893;28;20403;-82
2023/07/06 00:08:16;;;;;;;6.78;4.38;;;12.40;99.90;;;;;;5034872;28;20029;-81
2023/07/06 00:10:43;;;;;;;10.05;5.03;;;12.40;99.90;;;;;;5035115;28;20041;-82
2023/07/06 00:13:10;;;;;;;8.30;4.13;;;12.40;99.90;;;;;;5029569;28;20046;-80
2023/07/06 00:15:36;;;;;;;8.23;5.20;;;12.50;99.90;;;;;;5036003;28;20042;-82
2023/07/06 00:18:03;;;;;;;5.88;5.00;;;12.50;99.90;;;;;;5040338;28;20403;-82
2023/07/06 00:20:35;;;;;;;9.88;5.18;;;12.60;99.90;;;;;;5040636;28;20077;-81
2023/07/06 00:23:01;;;;;;;5.60;4.97;;;12.60;99.90;;;;;;5036575;28;20037;-80
2023/07/06 00:25:26;;;;;;;12.60;5.80;;;12.60;99.90;;;;;;5036921;28;20183;-81
2023/07/06 00:27:58;;;;;;;11.30;6.43;;;12.60;99.90;;;;;;5033150;28;20045;-82
2023/07/06 00:30:40;;;;;;;8.48;5.28;;;12.60;99.90;;;;;;5031794;28;20570;-81
2023/07/06 00:33:11;;;;;;;7.43;5.15;;;12.60;99.90;;;;;;5036281;28;20057;-82
2023/07/06 00:35:40;;;;;;;9.52;5.18;;;12.60;99.90;;;;;;5037957;28;20330;-81
2023/07/06 00:38:10;;;;;;;8.32;5.90;;;12.60;99.90;;;;;;5035278;28;20132;-81
2023/07/06 00:40:41;;;;;;;9.35;5.68;;;12.70;99.90;;;;;;5038229;28;20052;-81
2023/07/06 00:43:16;;;;;;;6.65;5.10;;;12.70;99.90;;;;;;5036134;28;20121;-82
2023/07/06 00:45:44;;;;;;;8.30;5.65;;;12.60;99.90;;;;;;5036328;28;20044;-80
2023/07/06 00:48:20;;;;;;;11.77;5.95;;;12.70;99.90;;;;;;5034576;28;20033;-81
2023/07/06 00:50:54;;;;;;;8.60;5.32;;;12.20;99.90;;;;;;5016982;28;20079;-82
2023/07/06 00:53:21;;;;;;;6.45;5.18;;;12.70;99.90;;;;;;5032704;28;20037;-82
2023/07/06 00:55:47;;;;;;;9.70;6.63;;;12.70;99.90;;;;;;5035329;28;20575;-82
2023/07/06 00:58:22;;;;;;;6.80;6.10;;;12.60;99.90;;;;;;5030181;28;20523;-81
2023/07/06 01:00:52;;;;;;;9.10;5.13;;;12.70;99.90;;;;;;5034831;28;20158;-80
2023/07/06 01:03:19;;;;;;;9.20;6.55;;;12.60;99.90;;;;;;5032996;28;20045;-82
2023/07/06 01:05:50;;;;;;;8.38;5.57;;;12.60;99.90;;;;;;5036478;28;20115;-82
2023/07/06 01:08:20;;;;;;;11.13;5.88;;;12.60;99.90;;;;;;5028410;28;20130;-82
2023/07/06 01:10:47;;;;;;;6.15;5.00;;;12.50;99.90;;;;;;5035473;28;20052;-82
2023/07/06 01:13:12;;;;;;;6.78;4.78;;;12.60;99.90;;;;;;5030940;28;20072;-82
2023/07/06 01:16:04;;;;;;;8.02;5.50;;;12.60;99.90;;;;;;5034990;28;20404;-81
2023/07/06 01:18:42;;;;;;;5.38;4.75;;;12.60;99.90;;;;;;5028415;28;20046;-81
2023/07/06 01:21:31;;;;;;;8.27;5.03;;;12.60;99.90;;;;;;5031469;28;20042;-82
2023/07/06 01:24:15;;;;;;;8.43;4.97;;;12.50;99.90;;;;;;5037621;28;20059;-82
2023/07/06 01:27:14;;;;;;;11.15;5.10;;;12.50;99.90;;;;;;5033569;28;20052;-82
2023/07/06 01:30:09;;;;;;;7.07;4.43;;;12.50;99.90;;;;;;5034687;28;20072;-81
2023/07/06 01:32:44;;;;;;;5.88;4.68;;;12.50;99.90;;;;;;5032357;28;20042;-82
2023/07/06 01:35:19;;;;;;;5.32;4.35;;;12.50;99.90;;;;;;5031925;28;20033;-81
2023/07/06 01:37:45;;;;;;;;;;;12.50;99.90;;;;;;5034151;28;20054;-82
2023/07/06 01:40:11;;;;;;;8.63;5.65;;;12.40;99.90;;;;;;5034817;28;19943;-81
2023/07/06 01:42:42;;;;;;;4.85;4.32;;;12.40;99.90;;;;;;5028850;28;20044;-81
2023/07/06 01:45:15;;;;;;;8.65;5.13;;;12.40;99.90;;;;;;5034140;28;20055;-81
2023/07/06 01:47:44;;;;;;;5.80;4.13;;;12.40;99.90;;;;;;5028694;28;20045;-82
2023/07/06 01:50:13;;;;;;;5.07;3.97;;;12.40;99.90;;;;;;5033608;28;20130;-82
2023/07/06 01:52:49;;;;;;;8.07;4.45;;;12.40;99.90;;;;;;5033480;28;20041;-82
2023/07/06 01:55:35;;;;;;;6.97;4.60;;;12.30;99.90;;;;;;5034797;28;20084;-82
2023/07/06 01:58:15;;;;;;;8.35;4.07;;;12.30;99.90;;;;;;5031797;28;20034;-82
2023/07/06 02:00:48;;;;;;;5.00;3.95;;;12.30;99.90;;;;;;5034259;28;20177;-81
2023/07/06 02:03:14;;;;;;;8.43;4.90;;;12.30;99.90;;;;;;5032207;28;20067;-82
2023/07/06 02:05:41;;;;;;;5.45;4.20;;;12.30;99.90;;;;;;5015679;28;20041;-82
2023/07/06 02:08:08;;;;;;;5.60;3.75;;;12.20;99.90;;;;;;5033103;28;20052;-82
2023/07/06 02:10:34;;;;;;;5.63;3.95;;;12.20;99.90;;;;;;5030913;28;20049;-82
2023/07/06 02:13:00;;;;;;;4.50;4.10;;;12.10;99.90;;;;;;5031500;28;20042;-82
2023/07/06 02:15:27;;;;;;;8.70;4.53;;;12.20;99.90;;;;;;5036178;28;20037;-82
2023/07/06 02:17:55;;;;;;;4.25;3.85;;;12.10;99.90;;;;;;5029299;28;20042;-81
2023/07/06 02:20:20;;;;;;;7.80;5.10;;;12.20;99.90;;;;;;5039923;28;20041;-82
2023/07/06 02:22:46;;;;;;;6.65;4.13;;;12.20;99.90;;;;;;5035480;28;20037;-82
2023/07/06 02:25:12;;;;;;;6.10;4.28;;;12.20;99.90;;;;;;5035335;28;20113;-82
2023/07/06 02:27:38;;;;;;;5.10;4.25;;;12.20;99.90;;;;;;5032675;28;20037;-82
2023/07/06 02:30:05;;;;;;;6.60;4.00;;;12.20;99.90;;;;;;5032820;28;20037;-80
2023/07/06 02:32:32;;;;;;;8.20;4.35;;;12.20;99.90;;;;;;5032224;28;20116;-82
2023/07/06 02:34:57;;;;;;;5.85;4.07;;;12.20;99.90;;;;;;5036790;28;20506;-82
2023/07/06 02:37:23;;;;;;;7.03;4.60;;;12.20;99.90;;;;;;5032939;28;20041;-82
2023/07/06 02:39:52;;;;;;;6.28;4.50;;;12.20;99.90;;;;;;5035139;28;20037;-82
2023/07/06 02:42:19;;;;;;;10.02;4.95;;;12.20;99.90;;;;;;5034448;28;20056;-81
2023/07/06 02:44:44;;;;;;;10.23;5.18;;;12.20;99.90;;;;;;5032232;28;20037;-81
2023/07/06 02:47:10;;;;;;;9.25;4.85;;;12.20;99.90;;;;;;5033176;28;20041;-82
2023/07/06 02:49:36;;;;;;;6.88;4.68;;;12.20;99.90;;;;;;5032833;28;20056;-81
2023/07/06 02:52:02;;;;;;;11.20;5.72;;;12.30;99.90;;;;;;5033864;28;20042;-82
2023/07/06 02:54:28;;;;;;;8.63;5.78;;;12.20;99.90;;;;;;5035135;28;20029;-82
2023/07/06 02:56:56;;;;;;;13.95;5.63;;;12.20;99.90;;;;;;5034495;28;20103;-82
2023/07/06 02:59:21;;;;;;;8.77;6.22;;;12.20;99.90;;;;;;5036796;28;20099;-82
2023/07/06 03:01:47;;;;;;;9.60;6.68;;;12.30;99.90;;;;;;5031329;28;20042;-82
2023/07/06 03:04:13;;;;;;;6.78;5.95;;;12.30;99.90;;;;;;5028743;28;20033;-82
2023/07/06 03:06:39;;;;;;;9.77;6.80;;;12.30;99.90;;;;;;5032250;28;20041;-82
2023/07/06 03:09:07;;;;;;;10.25;6.40;;;12.30;99.90;;;;;;5016376;28;20694;-82
2023/07/06 03:11:33;;;;;;;11.82;6.57;;;12.40;99.90;;;;;;5034633;28;20087;-82
2023/07/06 03:14:00;;;;;;;12.18;7.25;;;12.40;99.90;;;;;;5032347;28;20049;-82
2023/07/06 03:16:27;;;;;;;12.15;6.38;;;12.40;99.90;;;;;;5034625;28;20044;-81
2023/07/06 03:18:52;;;;;;;9.82;7.05;;;12.40;99.90;;;;;;5033151;28;20065;-82
2023/07/06 03:21:20;;;;;;;10.40;7.05;;;12.50;99.90;;;;;;5030675;28;20548;-82
2023/07/06 03:23:49;;;;;;;13.52;6.82;;;12.40;99.90;;;;;;5033286;28;20060;-82
2023/07/06 03:26:15;;;;;;;8.82;6.38;;;12.50;99.90;;;;;;5032155;28;20068;-82
2023/07/06 03:28:40;;;;;;;11.52;6.32;;;12.50;99.90;;;;;;5033225;28;20049;-81
2023/07/06 03:31:07;;;;;;;8.48;6.03;;;12.50;99.90;;;;;;5033683;28;20041;-81
2023/07/06 03:33:33;;;;;;;7.95;6.97;;;12.50;99.90;;;;;;5031336;28;20061;-80
2023/07/06 03:35:58;;;;;;;9.50;6.90;;;12.40;99.90;;;;;;5034336;28;20029;-81
2023/07/06 03:38:27;;;;;;;9.52;6.50;;;12.40;99.90;;;;;;5031371;28;20084;-82
2023/07/06 03:40:53;;;;;;;13.73;6.70;;;12.50;99.90;;;;;;5032140;28;20409;-81
2023/07/06 03:43:19;;;;;;;8.63;6.63;;;12.50;99.90;;;;;;5034060;28;20045;-81
2023/07/06 03:45:47;;;;;;;10.43;7.53;;;12.50;99.90;;;;;;5032698;28;20045;-82
2023/07/06 03:48:16;;;;;;;7.00;6.30;;;12.40;99.90;;;;;;5031682;28;20559;-82
2023/07/06 03:50:43;;;;;;;10.07;6.07;;;12.50;99.90;;;;;;5027434;28;20507;-82
2023/07/06 03:53:09;;;;;;;12.80;6.95;;;12.50;99.90;;;;;;5029444;28;20073;-82
2023/07/06 03:55:35;;;;;;;9.73;6.47;;;12.60;99.90;;;;;;5028897;28;20196;-82
2023/07/06 03:58:00;;;;;;;10.80;6.60;;;12.50;99.90;;;;;;5034347;28;20564;-82
2023/07/06 04:00:28;;;;;;;8.57;7.00;;;12.60;99.90;;;;;;5030173;28;20053;-81
2023/07/06 04:02:58;;;;;;;8.55;7.03;;;12.60;99.90;;;;;;5029116;28;20053;-82
2023/07/06 04:05:31;;;;;;;10.18;7.70;;;12.60;99.90;;;;;;5026948;28;20056;-81
2023/07/06 04:07:57;;;;;;;15.52;7.28;;;12.70;99.90;;;;;;5032578;28;20084;-82
2023/07/06 04:10:23;;;;;;;10.52;6.88;;;12.60;99.90;;;;;;5018359;28;20076;-82
2023/07/06 04:12:49;;;;;;;12.18;6.40;;;12.60;99.90;;;;;;5039588;28;20041;-81
2023/07/06 04:15:17;;;;;;;12.05;7.15;;;12.60;99.90;;;;;;5035611;28;20037;-82
2023/07/06 04:17:50;;;;;;;9.00;6.13;;;12.60;99.90;;;;;;5035638;28;20029;-82
2023/07/06 04:20:27;;;;;;;9.48;6.75;;;12.60;99.90;;;;;;5034774;28;20034;-81
2023/07/06 04:22:54;;;;;;;9.98;6.50;;;12.60;99.90;;;;;;5032783;28;20033;-82
2023/07/06 04:25:22;;;;;;;10.77;6.57;;;12.70;99.90;;;;;;5034909;28;20044;-81
2023/07/06 04:27:48;;;;;;;8.73;7.03;;;12.70;99.90;;;;;;5039485;28;20107;-81
2023/07/06 04:30:16;;;;;;;9.63;7.25;;;12.70;99.90;;;;;;5037118;28;20056;-82
2023/07/06 04:32:48;;;;;;;12.75;7.45;;;12.70;99.90;;;;;;5037362;28;20041;-81
2023/07/06 04:35:16;;;;;;;14.52;7.78;;;12.80;99.90;;;;;;5034730;28;20033;-80
2023/07/06 04:37:43;;;;;;;11.80;6.05;;;12.80;99.90;;;;;;5030206;28;20045;-81
2023/07/06 04:40:13;;;;;;;10.02;7.13;;;12.80;99.90;;;;;;5033104;28;20138;-82
2023/07/06 04:42:40;;;;;;;10.30;7.32;;;12.80;99.90;;;;;;5035483;28;20103;-81
2023/07/06 04:45:09;;;;;;;17.42;6.65;;;12.90;99.90;;;;;;5031139;28;20888;-81
2023/07/06 04:47:39;;;;;;;13.07;6.57;;;12.90;99.90;;;;;;5027249;28;20630;-82
2023/07/06 04:50:07;;;;;;;17.02;7.95;;;12.90;99.90;;;;;;5032367;28;20034;-81
2023/07/06 04:52:33;;;;;;;12.43;6.55;;;12.90;99.90;;;;;;5029354;28;20049;-80
2023/07/06 04:54:59;;;;;;;11.70;6.82;;;12.90;99.90;;;;;;5025442;28;20049;-81
2023/07/06 04:57:25;;;;;;;9.43;6.18;;;13.00;99.90;;;;;;5030115;28;20041;-81
2023/07/06 04:59:51;;;;;;;8.60;5.88;;;13.70;99.90;;;;;;5033171;28;20084;-81
2023/07/06 05:02:17;;;;;;;8.30;5.03;;;14.00;99.90;;;;;;5035463;28;20120;-81
2023/07/06 05:04:42;;;;;;;9.73;5.43;;;14.70;99.90;;;;;;5027481;28;20109;-78
2023/07/06 05:07:09;;;;;;;9.30;4.75;;;15.10;99.90;;;;;;5029935;28;20064;-80
2023/07/06 05:09:36;;;;;;;6.88;4.63;;;15.60;99.90;;;;;;5032673;28;20042;-81
2023/07/06 05:12:02;;;;;;;7.18;4.85;;;15.70;99.90;;;;;;5032474;28;20575;-81
2023/07/06 05:14:27;;;;;;;10.50;4.90;;;15.70;99.90;;;;;;5036723;28;20122;-81
2023/07/06 05:16:53;;;;;;;9.02;4.68;;;15.60;99.90;;;;;;5032462;28;20080;-81
2023/07/06 05:19:19;;;;;;;12.18;5.88;;;15.40;99.90;;;;;;5030652;28;20041;-79
2023/07/06 05:21:44;;;;;;;8.32;5.07;;;15.60;99.90;;;;;;5033135;28;20031;-81
2023/07/06 05:24:10;;;;;;;10.95;4.35;;;16.30;99.90;;;;;;5037105;28;20120;-80
2023/07/06 05:26:35;;;;;;;9.70;3.97;;;17.50;99.90;;;;;;5030273;28;20052;-80
2023/07/06 05:29:01;;;;;;;10.05;3.90;;;19.00;99.90;;;;;;5032476;28;20037;-80
2023/07/06 05:31:26;;;;;;;10.93;4.45;;;20.00;99.90;;;;;;5031541;28;20183;-80
2023/07/06 05:33:52;;;;;;;6.15;3.60;;;20.70;99.90;;;;;;5030033;28;20647;-80
2023/07/06 05:36:18;;;;;;;10.10;4.18;;;20.50;99.90;;;;;;5028260;28;20458;-80
2023/07/06 05:38:43;;;;;;;10.70;3.85;;;20.30;99.90;;;;;;5030453;28;20033;-79
2023/07/06 05:41:09;;;;;;;6.78;4.30;;;20.10;99.90;;;;;;5030147;28;20041;-79
2023/07/06 05:43:34;;;;;;;6.20;4.38;;;20.00;99.90;;;;;;5025264;28;20144;-80
2023/07/06 05:46:00;;;;;;;8.73;4.07;;;19.90;99.90;;;;;;5027857;28;20048;-81
2023/07/06 05:48:25;;;;;;;10.90;3.78;;;20.00;99.90;;;;;;5029704;28;20072;-79
2023/07/06 05:50:51;;;;;;;9.00;3.78;;;20.10;99.90;;;;;;5029098;28;20041;-82
2023/07/06 05:53:16;;;;;;;10.95;3.75;;;20.10;99.90;;;;;;5033484;28;20056;-81
2023/07/06 05:55:43;;;;;;;11.30;4.60;;;20.20;99.90;;;;;;5029923;28;20048;-80
2023/07/06 05:58:16;;;;;;;9.00;4.38;;;20.40;99.90;;;;;;5023677;28;20041;-80
2023/07/06 06:00:42;;;;;;;7.72;3.58;;;20.50;99.90;;;;;;5018622;28;20124;-78
2023/07/06 06:03:08;;;;;;;14.35;4.00;;;20.60;99.90;;;;;;5027182;28;20569;-79
2023/07/06 06:05:34;;;;;;;5.88;3.28;;;20.70;99.90;;;;;;5027534;28;20068;-79
2023/07/06 06:08:02;;;;;;;10.07;3.65;;;20.90;99.90;;;;;;5026229;28;20093;-80
2023/07/06 06:10:28;;;;;;;8.10;3.53;;;21.00;99.90;;;;;;5027561;28;20045;-79
2023/07/06 06:12:54;;;;;;;14.30;4.57;;;21.00;99.90;;;;;;5021648;28;20056;-79
2023/07/06 06:15:20;;;;;;;9.48;4.20;;;21.20;99.90;;;;;;5031194;28;20037;-80
2023/07/06 06:17:47;;;;;;;6.90;3.95;;;21.20;99.90;;;;;;5036433;28;20047;-80
2023/07/06 06:20:13;;;;;;;9.10;4.20;;;21.40;99.90;;;;;;5038562;28;20029;-80
2023/07/06 06:22:40;;;;;;;12.45;4.63;;;21.30;99.90;;;;;;5031955;28;20030;-82
2023/07/06 06:25:06;;;;;;;15.80;3.88;;;21.40;99.90;;;;;;5026738;28;20046;-81
2023/07/06 06:27:32;;;;;;;13.35;4.15;;;21.30;99.90;;;;;;5027208;28;20056;-81
2023/07/06 06:29:58;;;;;;;9.57;3.92;;;21.40;99.90;;;;;;5028398;28;20033;-81
2023/07/06 06:32:25;;;;;;;7.88;3.90;;;21.30;99.90;;;;;;5030783;28;20053;-81
2023/07/06 06:34:52;;;;;;;16.05;4.30;;;21.40;99.90;;;;;;5030326;28;20722;-81
2023/07/06 06:37:18;;;;;;;12.20;4.53;;;21.50;99.90;;;;;;5028963;28;20045;-81
2023/07/06 06:39:43;;;;;;;9.95;4.18;;;21.60;99.90;;;;;;5032442;28;20033;-80
2023/07/06 06:42:09;;;;;;;12.13;4.22;;;21.50;99.90;;;;;;5030414;28;20084;-81
2023/07/06 06:44:35;;;;;;;8.98;4.18;;;21.50;99.90;;;;;;5032437;28;20042;-81
2023/07/06 06:47:04;;;;;;;10.55;4.35;;;21.50;99.90;;;;;;5030250;28;20049;-81
2023/07/06 06:49:30;;;;;;;8.55;3.97;;;21.70;99.90;;;;;;5027557;28;20045;-81
2023/07/06 06:51:56;;;;;;;12.27;4.72;;;21.70;99.90;;;;;;5033797;28;20349;-81
2023/07/06 06:54:22;;;;;;;10.82;4.75;;;21.80;99.90;;;;;;5033012;28;20044;-80
2023/07/06 06:56:49;;;;;;;7.28;3.80;;;22.00;99.90;;;;;;5030754;28;20131;-82
2023/07/06 06:59:15;;;;;;;11.63;4.50;;;22.10;99.90;;;;;;5028254;28;20042;-83
2023/07/06 07:01:40;;;;;;;7.93;4.07;;;22.10;99.90;;;;;;5030008;28;20052;-81
2023/07/06 07:04:09;;;;;;;8.70;4.38;;;22.10;99.90;;;;;;5019570;28;20033;-81
2023/07/06 07:18:54;;;;;;;12.07;4.47;;;21.80;99.90;;;;;;4933385;29;20075;-81
2023/07/06 07:22:28;;;;;;;13.13;4.50;;;22.00;99.90;;;;;;4889770;29;20551;-83
2023/07/06 07:29:25;;;;;;;11.93;3.60;;;22.10;99.90;;;;;;4886226;29;20044;-82
2023/07/06 07:38:51;;;;;;;6.30;3.08;;;22.60;99.90;;;;;;4868868;29;19959;-79
2023/07/06 07:41:58;;;;;;;12.70;3.70;;;22.70;99.90;;;;;;4816347;29;20053;-81
2023/07/06 07:45:48;;;;;;;8.73;3.88;;;22.80;99.90;;;;;;4839488;29;20099;-82
2023/07/06 07:49:32;;;;;;;13.05;4.10;;;22.70;99.90;;;;;;4888541;29;20104;-81
2023/07/06 08:09:50;;;;;;;8.80;3.33;;;22.20;99.90;;;;;;5042419;28;20041;-80
2023/07/06 08:12:16;;;;;;;9.13;3.83;;;22.00;99.90;;;;;;5032053;28;20382;-80
2023/07/06 08:14:42;;;;;;;8.73;3.63;;;22.00;99.90;;;;;;5049432;28;20048;-80
2023/07/06 08:17:11;;;;;;;13.25;3.80;;;22.10;99.90;;;;;;5046935;28;20443;-81
2023/07/06 08:19:36;;;;;;;12.18;3.67;;;22.10;99.90;;;;;;5044000;28;20048;-81
2023/07/06 08:22:03;;;;;;;10.13;4.07;;;22.30;99.90;;;;;;5045502;28;20606;-80
2023/07/06 08:24:29;;;;;;;11.18;3.15;;;22.40;99.90;;;;;;5043284;28;20135;-79
2023/07/06 08:27:01;;;;;;;9.25;3.38;;;22.40;99.90;;;;;;5044649;28;20127;-83
2023/07/06 08:29:28;;;;;;;7.88;3.03;;;22.50;99.90;;;;;;5040514;28;20060;-80
2023/07/06 08:32:03;;;;;;;12.02;3.45;;;22.70;99.90;;;;;;5044628;28;20045;-80
2023/07/06 08:34:29;;;;;;;6.90;3.28;;;22.70;99.90;;;;;;5040458;28;20608;-79
2023/07/06 08:37:04;;;;;;;10.90;3.53;;;22.50;99.90;;;;;;5049966;28;20072;-82
2023/07/06 08:39:33;;;;;;;;;;;22.50;99.90;;;;;;5027058;28;20037;-80
2023/07/06 08:42:23;;;;;;;7.72;2.75;;;22.50;99.90;;;;;;5047819;28;20012;-81
2023/07/06 08:45:02;;;;;;;6.20;1.67;;;22.70;99.90;;;;;;5046721;28;20051;-82
2023/07/06 08:48:22;;;;;;;14.95;2.30;;;22.80;99.90;;;;;;5044914;28;20159;-81
2023/07/06 08:51:34;;;;;;;6.15;2.30;;;22.90;99.90;;;;;;5041485;28;20079;-82
2023/07/06 08:54:21;;;;;;;9.63;2.22;;;22.70;99.90;;;;;;5043882;28;20033;-82
2023/07/06 08:57:10;;;;;;;5.53;2.28;;;22.40;99.90;;;;;;5045884;28;20041;-82
2023/07/06 09:03:23;;;;;;;3.97;1.42;;;21.80;99.90;;;;;;5022140;28;20052;-82
2023/07/06 09:05:50;;;;;;;4.95;1.60;;;21.60;99.90;;;;;;5006892;28;20073;-82
2023/07/06 09:11:58;;;;;;;5.70;1.60;;;21.90;99.90;;;;;;5028208;28;20498;-82
2023/07/06 09:14:43;;;;;;;8.43;2.15;;;22.40;99.90;;;;;;5002520;28;20054;-82
2023/07/06 09:17:47;;;;;;;5.50;1.20;;;22.40;99.90;;;;;;5004379;28;20088;-83
2023/07/06 09:20:54;;;;;;;6.05;1.50;;;22.50;99.90;;;;;;5042288;28;20052;-82
2023/07/06 09:23:21;;;;;;;5.47;1.92;;;22.30;99.90;;;;;;5042204;28;20109;-83
2023/07/06 09:25:48;;;;;;;8.45;1.30;;;22.10;99.90;;;;;;5040661;28;20064;-82
2023/07/06 09:29:17;;;;;;;8.55;2.58;;;22.10;99.90;;;;;;5038961;28;20079;-81
2023/07/06 09:35:38;;;;;;;6.35;1.50;;;22.20;99.90;;;;;;5041187;28;20304;-83
2023/07/06 09:38:06;;;;;;;10.18;1.73;;;22.10;99.90;;;;;;5041140;28;20087;-81
2023/07/06 09:40:32;;;;;;;3.85;1.00;;;22.00;99.90;;;;;;5040329;28;20045;-79
2023/07/06 09:42:57;;;;;;;3.85;0.88;;;21.80;99.90;;;;;;5040414;28;20380;-81
2023/07/06 09:45:25;;;;;;;2.33;0.77;;;21.70;99.90;;;;;;5043923;28;20067;-81
2023/07/06 09:48:07;;;;;;;5.13;1.33;;;21.70;99.90;;;;;;5048175;28;20041;-80
2023/07/06 09:50:35;;;;;;;3.92;0.85;;;21.60;99.90;;;;;;5042739;28;20052;-80
2023/07/06 09:53:05;;;;;;;6.65;1.50;;;21.70;99.90;;;;;;5043426;28;20033;-80
2023/07/06 09:55:31;;;;;;;8.15;1.08;;;22.00;99.90;;;;;;5041733;28;20116;-81
2023/07/06 09:57:58;;;;;;;1.70;0.93;;;22.30;99.90;;;;;;5041928;28;20076;-82
2023/07/06 10:00:33;;;;;;;4.53;1.35;;;22.60;99.90;;;;;;5047247;28;20037;-81
2023/07/06 10:03:38;;;;;;;4.40;1.73;;;22.60;99.90;;;;;;5044400;28;20051;-82
2023/07/06 10:06:25;;;;;;;3.08;1.63;;;22.70;99.90;;;;;;5010472;28;20296;-81
2023/07/06 10:09:08;;;;;;;5.55;1.05;;;22.70;99.90;;;;;;5045428;28;20045;-82
2023/07/06 10:11:36;;;;;;;8.00;1.50;;;22.80;99.90;;;;;;5039678;28;20049;-80
2023/07/06 10:14:09;;;;;;;4.18;1.40;;;22.90;99.90;;;;;;5039627;28;20060;-81
2023/07/06 10:16:57;;;;;;;6.18;1.42;;;23.00;99.90;;;;;;5043166;28;20052;-81
2023/07/06 10:19:36;;;;;;;3.97;0.98;;;23.20;99.90;;;;;;5046287;28;20037;-81
2023/07/06 10:22:14;;;;;;;3.63;0.90;;;23.20;99.90;;;;;;5042858;28;20052;-82
2023/07/06 10:24:55;;;;;;;2.33;1.15;;;23.40;99.90;;;;;;5044959;28;20060;-82
2023/07/06 10:27:31;;;;;;;4.55;1.52;;;23.50;99.90;;;;;;5041007;28;20105;-81
2023/07/06 10:30:03;;;;;;;4.80;1.23;;;23.20;99.90;;;;;;5046612;28;20041;-81
2023/07/06 10:32:37;;;;;;;6.70;1.45;;;23.20;99.90;;;;;;5044760;28;20095;-79
2023/07/06 10:35:19;;;;;;;5.65;1.45;;;23.10;99.90;;;;;;5046388;28;20127;-81
2023/07/06 10:37:46;;;;;;;4.50;1.40;;;23.30;99.90;;;;;;5043106;28;20068;-81
2023/07/06 10:40:30;;;;;;;3.08;0.80;;;23.50;99.90;;;;;;5043938;28;20484;-81
2023/07/06 10:43:20;;;;;;;3.70;0.75;;;23.70;99.90;;;;;;5043508;28;21257;-81
2023/07/06 10:45:56;;;;;;;3.42;0.80;;;23.90;99.50;;;;;;5046830;28;20492;-81
2023/07/06 10:48:24;;;;;;;3.20;0.60;;;23.90;99.90;;;;;;5041953;28;20044;-81
2023/07/06 10:51:23;;;;;;;3.35;0.63;;;23.90;99.40;;;;;;5051631;28;20033;-81
2023/07/06 10:54:10;;;;;;;1.73;0.70;;;23.80;98.10;;;;;;5046381;28;20069;-80
2023/07/06 10:56:45;;;;;;;3.35;0.60;;;23.70;98.80;;;;;;5046979;28;20543;-78
2023/07/06 10:59:23;;;;;;;3.95;0.60;;;23.90;99.90;;;;;;5042446;28;20052;-82
2023/07/06 11:02:05;;;;;;;6.22;1.00;;;24.30;99.90;;;;;;5044004;28;20104;-81
2023/07/06 11:04:41;;;;;;;2.35;0.90;;;24.40;99.80;;;;;;5041705;28;20885;-82
2023/07/06 11:07:34;;;;;;;5.28;0.80;;;24.50;98.80;;;;;;5038022;28;20045;-82
2023/07/06 11:10:21;;;;;;;1.67;0.65;;;24.50;98.50;;;;;;5041782;28;20036;-81
2023/07/06 11:12:57;;;;;;;3.60;0.68;;;24.50;99.50;;;;;;5035278;28;20349;-83
2023/07/06 11:15:40;;;;;;;5.20;0.82;;;24.60;99.30;;;;;;5041275;28;20045;-82
2023/07/06 11:18:18;;;;;;;3.97;0.90;;;24.60;98.80;;;;;;5036905;28;20045;-82
2023/07/06 11:21:02;;;;;;;4.30;1.30;;;24.50;97.60;;;;;;5042563;28;20054;-82
2023/07/06 11:23:38;;;;;;;4.10;0.85;;;24.60;99.50;;;;;;5041480;28;20076;-82
2023/07/06 11:26:13;;;;;;;5.35;0.85;;;24.70;97.30;;;;;;5037648;28;20197;-80
2023/07/06 11:28:40;;;;;;;2.63;1.30;;;24.60;96.40;;;;;;5037823;28;20045;-81
2023/07/06 11:31:38;;;;;;;4.57;1.25;;;24.60;97.20;;;;;;5038703;28;20068;-78
2023/07/06 11:34:23;;;;;;;3.78;1.65;;;24.50;97.70;;;;;;5024486;28;20053;-81
2023/07/06 11:37:08;;;;;;;4.45;1.20;;;24.40;97.60;;;;;;5038744;28;20041;-81
2023/07/06 11:39:49;;;;;;;2.85;0.60;;;24.40;97.10;;;;;;5038774;28;20114;-82
2023/07/06 11:42:33;;;;;;;2.95;0.90;;;24.30;99.40;;;;;;5039487;28;20037;-82
2023/07/06 11:45:07;;;;;;;3.08;0.43;;;24.40;98.20;;;;;;5040547;28;20462;-82
2023/07/06 11:47:54;;;;;;;2.23;0.70;;;24.50;97.50;;;;;;5037694;28;20041;-80
2023/07/06 11:50:22;;;;;;;6.32;0.77;;;24.60;95.70;;;;;;5040875;28;20296;-82
2023/07/06 11:53:09;;;;;;;3.40;0.70;;;24.80;96.70;;;;;;5035830;28;20073;-80
2023/07/06 11:55:50;;;;;;;2.55;0.90;;;25.00;97.10;;;;;;5037725;28;20128;-82
2023/07/06 12:01:20;;;;;;;1.02;0.50;;;24.60;97.80;;;;;;5040657;28;20048;-81
2023/07/06 12:03:47;;;;;;;5.78;0.68;;;24.40;98.30;;;;;;5046172;28;20048;-81
2023/07/06 12:06:17;;;;;;;3.53;0.88;;;24.40;97.40;;;;;;5042298;28;20689;-82
2023/07/06 12:08:44;;;;;;;2.40;0.60;;;24.50;96.70;;;;;;5037778;28;20045;-82
2023/07/06 12:11:16;;;;;;;3.10;0.80;;;24.50;97.30;;;;;;5024054;28;20148;-82
2023/07/06 12:13:43;;;;;;;3.45;0.82;;;24.50;97.30;;;;;;5040076;28;20049;-81
2023/07/06 12:16:13;;;;;;;3.42;0.55;;;24.60;97.30;;;;;;5038323;28;20045;-80
2023/07/06 12:18:41;;;;;;;3.95;0.80;;;24.70;98.30;;;;;;5041027;28;20094;-81
2023/07/06 12:21:36;;;;;;;2.67;0.60;;;24.70;98.10;;;;;;5038992;28;20063;-81
2023/07/06 12:24:04;;;;;;;2.90;0.88;;;24.90;99.10;;;;;;5040468;28;20112;-81
2023/07/06 12:26:31;;;;;;;4.45;1.13;;;24.90;96.90;;;;;;5048425;28;20051;-82
2023/07/06 12:29:02;;;;;;;3.13;0.63;;;25.00;96.90;;;;;;5044563;28;20049;-82
2023/07/06 12:31:30;;;;;;;2.63;1.05;;;25.20;96.60;;;;;;5045390;28;20049;-82
2023/07/06 12:33:57;;;;;;;3.38;0.98;;;25.10;96.50;;;;;;5025485;28;20045;-81
2023/07/06 12:36:33;;;;;;;4.50;1.10;;;25.30;97.70;;;;;;5041241;28;20038;-81
2023/07/06 12:39:00;;;;;;;4.35;1.13;;;25.20;96.80;;;;;;5041602;28;20044;-82
2023/07/06 12:41:26;;;;;;;3.67;0.90;;;25.20;97.50;;;;;;5035635;28;20048;-81
2023/07/06 12:43:55;;;;;;;10.75;1.60;;;25.30;97.40;;;;;;5038866;28;20059;-83
2023/07/06 12:46:23;;;;;;;4.25;1.42;;;25.30;97.20;;;;;;5037598;28;20051;-82
2023/07/06 12:48:53;;;;;;;4.55;1.05;;;25.00;97.20;;;;;;5023497;28;20041;-83
2023/07/06 12:51:23;;;;;;;5.03;1.38;;;24.90;97.10;;;;;;5040577;28;20052;-83
2023/07/06 12:53:54;;;;;;;2.33;0.90;;;24.60;98.10;;;;;;5037725;28;20091;-84
2023/07/06 12:56:22;;;;;;;5.10;1.58;;;24.50;97.30;;;;;;5036607;28;20041;-84
2023/07/06 12:58:59;;;;;;;3.40;1.17;;;24.10;97.40;;;;;;5038280;28;20037;-82
2023/07/06 13:01:29;;;;;;;4.72;1.52;;;23.90;97.50;;;;;;5037877;28;20112;-82
2023/07/06 13:04:07;;;;;;;4.20;0.98;;;23.60;97.90;;;;;;5040184;28;20068;-82
2023/07/06 13:06:43;;;;;;;5.00;1.13;;;23.50;98.40;;;;;;5039237;28;20076;-83
2023/07/06 13:09:21;;;;;;;2.97;1.23;;;23.40;98.90;;;;;;5043281;28;20045;-82
2023/07/06 13:11:49;;;;;;;7.53;1.38;;;23.30;99.30;;;;;;5028054;28;20056;-82
2023/07/06 13:14:21;;;;;;;4.43;1.30;;;23.20;99.20;;;;;;5038995;28;20056;-79
2023/07/06 13:16:56;;;;;;;6.97;1.55;;;23.20;99.90;;;;;;5038938;28;20133;-82
2023/07/06 13:19:25;;;;;;;7.38;1.65;;;23.30;99.70;;;;;;5042759;28;20151;-82
2023/07/06 13:21:53;;;;;;;6.20;2.28;;;23.50;99.30;;;;;;5047823;28;20116;-84
2023/07/06 13:24:23;;;;;;;4.97;1.80;;;23.60;99.70;;;;;;5049770;28;20045;-82
2023/07/06 13:26:52;;;;;;;4.72;1.38;;;23.70;99.70;;;;;;5042418;28;20097;-82
2023/07/06 13:29:18;;;;;;;4.57;1.42;;;23.70;99.90;;;;;;5041167;28;20407;-82
2023/07/06 13:31:45;;;;;;;4.78;2.05;;;23.70;99.30;;;;;;5039228;28;20052;-81
2023/07/06 13:34:11;;;;;;;3.70;1.65;;;23.70;99.90;;;;;;5032950;28;20044;-81
2023/07/06 13:36:37;;;;;;;3.55;1.45;;;23.60;99.40;;;;;;5041689;28;20412;-82
2023/07/06 13:39:06;;;;;;;4.15;1.23;;;23.40;99.60;;;;;;5037565;28;20359;-82
2023/07/06 13:41:34;;;;;;;5.50;2.70;;;23.30;99.80;;;;;;5039525;28;20041;-81
2023/07/06 13:44:00;;;;;;;3.45;1.20;;;23.40;99.30;;;;;;5050147;28;20095;-81
2023/07/06 13:46:26;;;;;;;6.72;1.30;;;23.30;99.60;;;;;;5040687;28;20136;-81
2023/07/06 13:48:52;;;;;;;4.95;1.02;;;23.30;98.40;;;;;;5045320;28;20056;-80
2023/07/06 13:51:18;;;;;;;5.03;1.00;;;23.30;98.70;;;;;;5060302;28;20124;-81
2023/07/06 13:53:49;;;;;;;4.80;1.58;;;23.40;98.50;;;;;;5036498;28;20045;-81
2023/07/06 13:56:16;;;;;;;5.10;1.40;;;23.50;98.10;;;;;;5042822;28;20037;-82
2023/07/06 13:58:43;;;;;;;4.65;1.40;;;23.70;98.20;;;;;;5042592;28;20037;-82
2023/07/06 14:01:17;;;;;;;5.88;1.30;;;23.70;98.00;;;;;;5039880;28;20033;-82
2023/07/06 14:03:44;;;;;;;7.18;1.90;;;23.70;98.40;;;;;;5045964;28;20041;-82
2023/07/06 14:06:13;;;;;;;4.47;1.13;;;23.90;98.50;;;;;;5044477;28;20037;-82